sensor_id;sensor_type;location;lat;lon;timestamp;P1;durP1;ratioP1;P2;durP2;ratioP2
1679;SDS011;838;51.794;12.258;2022-11-06T00:01:29;15.60;;;7.80;;
1679;SDS011;838;51.794;12.258;2022-11-06T00:03:55;15.20;;;7.90;;
1679;SDS011;838;51.794;12.258;2022-11-06T00:06:21;9.80;;;7.43;;
1679;SDS011;838;51.794;12.258;2022-11-06T00:09:07;10.43;;;7.23;;
1679;SDS011;838;51.794;12.258;2022-11-06T00:11:34;12.43;;;8.30;;
1679;SDS011;838;51.794;12.258;2022-11-06T00:14:00;16.10;;;7.93;;
1679;SDS011;838;51.794;12.258;2022-11-06T00:16:27;12.70;;;7.60;;
1679;SDS011;838;51.794;12.258;2022-11-06T00:18:53;10.90;;;7.23;;
1679;SDS011;838;51.794;12.258;2022-11-06T00:21:21;16.20;;;8.70;;
1679;SDS011;838;51.794;12.258;2022-11-06T00:23:48;11.60;;;7.63;;
1679;SDS011;838;51.794;12.258;2022-11-06T00:26:16;16.33;;;7.93;;
1679;SDS011;838;51.794;12.258;2022-11-06T00:28:44;11.03;;;7.87;;
1679;SDS011;838;51.794;12.258;2022-11-06T00:31:15;10.73;;;7.40;;
1679;SDS011;838;51.794;12.258;2022-11-06T00:33:45;8.57;;;6.60;;
1679;SDS011;838;51.794;12.258;2022-11-06T00:36:15;9.53;;;7.00;;
1679;SDS011;838;51.794;12.258;2022-11-06T00:38:42;17.57;;;8.40;;
1679;SDS011;838;51.794;12.258;2022-11-06T00:41:10;14.00;;;7.30;;
1679;SDS011;838;51.794;12.258;2022-11-06T00:43:37;13.97;;;8.70;;
1679;SDS011;838;51.794;12.258;2022-11-06T00:46:04;11.47;;;8.17;;
1679;SDS011;838;51.794;12.258;2022-11-06T00:48:32;14.10;;;8.20;;
1679;SDS011;838;51.794;12.258;2022-11-06T00:53:31;9.77;;;6.80;;
1679;SDS011;838;51.794;12.258;2022-11-06T00:56:04;10.70;;;6.23;;
1679;SDS011;838;51.794;12.258;2022-11-06T00:58:35;11.77;;;7.10;;
1679;SDS011;838;51.794;12.258;2022-11-06T01:01:08;11.77;;;6.90;;
1679;SDS011;838;51.794;12.258;2022-11-06T01:03:39;9.43;;;6.50;;
1679;SDS011;838;51.794;12.258;2022-11-06T01:06:09;11.03;;;7.00;;
1679;SDS011;838;51.794;12.258;2022-11-06T01:08:38;13.83;;;6.60;;
1679;SDS011;838;51.794;12.258;2022-11-06T01:11:04;12.47;;;6.67;;
1679;SDS011;838;51.794;12.258;2022-11-06T01:13:35;11.43;;;6.83;;
1679;SDS011;838;51.794;12.258;2022-11-06T01:16:03;10.17;;;7.30;;
1679;SDS011;838;51.794;12.258;2022-11-06T01:18:31;9.67;;;6.57;;
1679;SDS011;838;51.794;12.258;2022-11-06T01:20:57;12.27;;;7.17;;
1679;SDS011;838;51.794;12.258;2022-11-06T01:23:23;13.13;;;7.43;;
1679;SDS011;838;51.794;12.258;2022-11-06T01:25:58;12.70;;;6.70;;
1679;SDS011;838;51.794;12.258;2022-11-06T01:28:26;10.13;;;6.50;;
1679;SDS011;838;51.794;12.258;2022-11-06T01:30:52;9.13;;;6.87;;
1679;SDS011;838;51.794;12.258;2022-11-06T01:33:18;9.80;;;7.07;;
1679;SDS011;838;51.794;12.258;2022-11-06T01:35:47;10.20;;;7.17;;
1679;SDS011;838;51.794;12.258;2022-11-06T01:38:14;13.63;;;7.80;;
1679;SDS011;838;51.794;12.258;2022-11-06T01:40:41;10.77;;;6.53;;
1679;SDS011;838;51.794;12.258;2022-11-06T01:43:13;10.47;;;6.90;;
1679;SDS011;838;51.794;12.258;2022-11-06T01:45:42;13.17;;;6.83;;
1679;SDS011;838;51.794;12.258;2022-11-06T01:48:10;9.07;;;6.30;;
1679;SDS011;838;51.794;12.258;2022-11-06T01:50:37;9.20;;;6.73;;
1679;SDS011;838;51.794;12.258;2022-11-06T01:53:05;8.90;;;6.33;;
1679;SDS011;838;51.794;12.258;2022-11-06T01:55:32;11.90;;;6.70;;
1679;SDS011;838;51.794;12.258;2022-11-06T01:58:02;8.53;;;5.70;;
1679;SDS011;838;51.794;12.258;2022-11-06T02:00:30;18.87;;;7.13;;
1679;SDS011;838;51.794;12.258;2022-11-06T02:02:57;9.87;;;6.20;;
1679;SDS011;838;51.794;12.258;2022-11-06T02:05:22;10.50;;;6.90;;
1679;SDS011;838;51.794;12.258;2022-11-06T02:07:48;10.60;;;6.60;;
1679;SDS011;838;51.794;12.258;2022-11-06T02:10:15;10.30;;;6.60;;
1679;SDS011;838;51.794;12.258;2022-11-06T02:12:47;11.70;;;7.27;;
1679;SDS011;838;51.794;12.258;2022-11-06T02:18:23;15.83;;;7.57;;
1679;SDS011;838;51.794;12.258;2022-11-06T02:29:33;12.07;;;6.80;;
1679;SDS011;838;51.794;12.258;2022-11-06T02:32:11;8.30;;;6.20;;
1679;SDS011;838;51.794;12.258;2022-11-06T02:34:59;10.70;;;6.80;;
1679;SDS011;838;51.794;12.258;2022-11-06T02:37:31;9.97;;;6.20;;
1679;SDS011;838;51.794;12.258;2022-11-06T02:40:01;10.23;;;7.27;;
1679;SDS011;838;51.794;12.258;2022-11-06T02:42:30;9.67;;;6.67;;
1679;SDS011;838;51.794;12.258;2022-11-06T02:44:59;7.60;;;5.63;;
1679;SDS011;838;51.794;12.258;2022-11-06T02:47:27;9.73;;;6.33;;
1679;SDS011;838;51.794;12.258;2022-11-06T02:50:00;13.23;;;7.20;;
1679;SDS011;838;51.794;12.258;2022-11-06T02:52:45;12.77;;;6.80;;
1679;SDS011;838;51.794;12.258;2022-11-06T02:55:18;10.40;;;6.27;;
1679;SDS011;838;51.794;12.258;2022-11-06T02:57:50;11.07;;;6.77;;
1679;SDS011;838;51.794;12.258;2022-11-06T03:00:19;9.40;;;6.97;;
1679;SDS011;838;51.794;12.258;2022-11-06T03:02:52;11.30;;;6.30;;
1679;SDS011;838;51.794;12.258;2022-11-06T03:05:36;11.87;;;5.90;;
1679;SDS011;838;51.794;12.258;2022-11-06T03:13:47;9.10;;;6.17;;
1679;SDS011;838;51.794;12.258;2022-11-06T03:16:47;13.63;;;6.93;;
1679;SDS011;838;51.794;12.258;2022-11-06T03:19:29;11.23;;;8.00;;
1679;SDS011;838;51.794;12.258;2022-11-06T03:24:45;8.80;;;6.20;;
1679;SDS011;838;51.794;12.258;2022-11-06T03:27:32;9.70;;;5.90;;
1679;SDS011;838;51.794;12.258;2022-11-06T03:30:05;15.97;;;6.10;;
1679;SDS011;838;51.794;12.258;2022-11-06T03:32:34;10.10;;;6.53;;
1679;SDS011;838;51.794;12.258;2022-11-06T03:35:28;8.57;;;6.63;;
1679;SDS011;838;51.794;12.258;2022-11-06T03:38:06;7.57;;;5.50;;
1679;SDS011;838;51.794;12.258;2022-11-06T03:40:40;12.20;;;6.57;;
1679;SDS011;838;51.794;12.258;2022-11-06T03:43:09;11.20;;;7.00;;
1679;SDS011;838;51.794;12.258;2022-11-06T03:45:38;10.77;;;6.73;;
1679;SDS011;838;51.794;12.258;2022-11-06T03:48:15;11.77;;;6.57;;
1679;SDS011;838;51.794;12.258;2022-11-06T03:50:52;11.23;;;6.43;;
1679;SDS011;838;51.794;12.258;2022-11-06T03:53:26;10.70;;;7.40;;
1679;SDS011;838;51.794;12.258;2022-11-06T03:56:01;10.20;;;6.50;;
1679;SDS011;838;51.794;12.258;2022-11-06T03:58:37;11.17;;;6.57;;
1679;SDS011;838;51.794;12.258;2022-11-06T04:01:06;12.20;;;6.77;;
1679;SDS011;838;51.794;12.258;2022-11-06T04:03:57;10.13;;;6.53;;
1679;SDS011;838;51.794;12.258;2022-11-06T04:06:39;9.70;;;6.10;;
1679;SDS011;838;51.794;12.258;2022-11-06T04:09:13;10.03;;;6.80;;
1679;SDS011;838;51.794;12.258;2022-11-06T04:12:00;8.10;;;5.80;;
1679;SDS011;838;51.794;12.258;2022-11-06T04:14:48;11.23;;;6.93;;
1679;SDS011;838;51.794;12.258;2022-11-06T04:17:16;9.03;;;5.80;;
1679;SDS011;838;51.794;12.258;2022-11-06T04:20:05;12.20;;;7.30;;
1679;SDS011;838;51.794;12.258;2022-11-06T04:31:01;14.63;;;6.93;;
1679;SDS011;838;51.794;12.258;2022-11-06T04:38:46;9.80;;;6.87;;
1679;SDS011;838;51.794;12.258;2022-11-06T04:41:27;9.60;;;6.60;;
1679;SDS011;838;51.794;12.258;2022-11-06T04:44:31;13.40;;;6.77;;
1679;SDS011;838;51.794;12.258;2022-11-06T04:47:01;11.97;;;6.40;;
1679;SDS011;838;51.794;12.258;2022-11-06T04:49:33;8.93;;;6.40;;
1679;SDS011;838;51.794;12.258;2022-11-06T04:52:03;11.57;;;7.70;;
1679;SDS011;838;51.794;12.258;2022-11-06T04:54:32;9.97;;;5.70;;
1679;SDS011;838;51.794;12.258;2022-11-06T04:56:59;10.73;;;6.77;;
1679;SDS011;838;51.794;12.258;2022-11-06T04:59:26;19.93;;;7.60;;
1679;SDS011;838;51.794;12.258;2022-11-06T05:01:52;13.57;;;6.77;;
1679;SDS011;838;51.794;12.258;2022-11-06T05:04:18;9.77;;;7.20;;
1679;SDS011;838;51.794;12.258;2022-11-06T05:06:44;10.30;;;6.53;;
1679;SDS011;838;51.794;12.258;2022-11-06T05:09:10;9.67;;;6.40;;
1679;SDS011;838;51.794;12.258;2022-11-06T05:11:35;13.67;;;6.70;;
1679;SDS011;838;51.794;12.258;2022-11-06T05:14:02;13.30;;;6.90;;
1679;SDS011;838;51.794;12.258;2022-11-06T05:16:28;15.20;;;7.37;;
1679;SDS011;838;51.794;12.258;2022-11-06T05:18:54;11.93;;;6.53;;
1679;SDS011;838;51.794;12.258;2022-11-06T05:21:20;9.20;;;5.97;;
1679;SDS011;838;51.794;12.258;2022-11-06T05:24:04;10.10;;;6.80;;
1679;SDS011;838;51.794;12.258;2022-11-06T05:26:30;9.67;;;6.60;;
1679;SDS011;838;51.794;12.258;2022-11-06T05:28:56;12.23;;;6.33;;
1679;SDS011;838;51.794;12.258;2022-11-06T05:31:22;10.23;;;6.80;;
1679;SDS011;838;51.794;12.258;2022-11-06T05:33:48;9.20;;;6.33;;
1679;SDS011;838;51.794;12.258;2022-11-06T05:36:14;13.17;;;7.13;;
1679;SDS011;838;51.794;12.258;2022-11-06T05:38:40;16.40;;;7.37;;
1679;SDS011;838;51.794;12.258;2022-11-06T05:41:05;11.80;;;7.27;;
1679;SDS011;838;51.794;12.258;2022-11-06T05:43:31;9.93;;;6.80;;
1679;SDS011;838;51.794;12.258;2022-11-06T05:45:57;9.80;;;6.60;;
1679;SDS011;838;51.794;12.258;2022-11-06T05:48:24;9.33;;;6.33;;
1679;SDS011;838;51.794;12.258;2022-11-06T05:50:53;9.73;;;6.30;;
1679;SDS011;838;51.794;12.258;2022-11-06T05:53:24;10.20;;;6.60;;
1679;SDS011;838;51.794;12.258;2022-11-06T05:55:50;10.47;;;7.07;;
1679;SDS011;838;51.794;12.258;2022-11-06T05:58:16;11.37;;;6.87;;
1679;SDS011;838;51.794;12.258;2022-11-06T06:00:44;8.83;;;5.87;;
1679;SDS011;838;51.794;12.258;2022-11-06T06:03:10;11.47;;;6.33;;
1679;SDS011;838;51.794;12.258;2022-11-06T06:05:36;7.73;;;6.37;;
1679;SDS011;838;51.794;12.258;2022-11-06T06:08:02;13.73;;;7.27;;
1679;SDS011;838;51.794;12.258;2022-11-06T06:10:28;10.40;;;7.07;;
1679;SDS011;838;51.794;12.258;2022-11-06T06:12:54;10.60;;;7.15;;
1679;SDS011;838;51.794;12.258;2022-11-06T06:15:19;10.33;;;6.77;;
1679;SDS011;838;51.794;12.258;2022-11-06T06:17:45;10.33;;;7.10;;
1679;SDS011;838;51.794;12.258;2022-11-06T06:20:11;11.57;;;7.50;;
1679;SDS011;838;51.794;12.258;2022-11-06T06:22:36;10.80;;;6.63;;
1679;SDS011;838;51.794;12.258;2022-11-06T06:25:02;14.97;;;8.30;;
1679;SDS011;838;51.794;12.258;2022-11-06T06:27:28;11.10;;;8.03;;
1679;SDS011;838;51.794;12.258;2022-11-06T06:29:55;11.70;;;7.30;;
1679;SDS011;838;51.794;12.258;2022-11-06T06:32:20;10.93;;;7.50;;
1679;SDS011;838;51.794;12.258;2022-11-06T06:34:46;14.00;;;7.90;;
1679;SDS011;838;51.794;12.258;2022-11-06T06:37:12;14.97;;;7.60;;
1679;SDS011;838;51.794;12.258;2022-11-06T06:39:38;14.97;;;7.60;;
1679;SDS011;838;51.794;12.258;2022-11-06T06:42:04;12.23;;;7.17;;
1679;SDS011;838;51.794;12.258;2022-11-06T06:44:30;10.60;;;7.43;;
1679;SDS011;838;51.794;12.258;2022-11-06T06:46:55;9.70;;;7.37;;
1679;SDS011;838;51.794;12.258;2022-11-06T06:49:21;11.73;;;7.87;;
1679;SDS011;838;51.794;12.258;2022-11-06T06:51:47;10.70;;;7.53;;
1679;SDS011;838;51.794;12.258;2022-11-06T06:54:13;10.83;;;7.33;;
1679;SDS011;838;51.794;12.258;2022-11-06T06:56:39;12.17;;;8.70;;
1679;SDS011;838;51.794;12.258;2022-11-06T06:59:05;12.60;;;9.23;;
1679;SDS011;838;51.794;12.258;2022-11-06T07:01:31;10.30;;;7.47;;
1679;SDS011;838;51.794;12.258;2022-11-06T07:03:57;11.33;;;8.07;;
1679;SDS011;838;51.794;12.258;2022-11-06T07:06:23;12.33;;;8.07;;
1679;SDS011;838;51.794;12.258;2022-11-06T07:08:49;13.20;;;7.50;;
1679;SDS011;838;51.794;12.258;2022-11-06T07:11:18;13.80;;;8.70;;
1679;SDS011;838;51.794;12.258;2022-11-06T07:13:43;11.07;;;8.20;;
1679;SDS011;838;51.794;12.258;2022-11-06T07:16:09;9.20;;;7.70;;
1679;SDS011;838;51.794;12.258;2022-11-06T07:18:36;10.97;;;7.87;;
1679;SDS011;838;51.794;12.258;2022-11-06T07:21:03;8.70;;;5.73;;
1679;SDS011;838;51.794;12.258;2022-11-06T07:23:30;9.87;;;6.90;;
1679;SDS011;838;51.794;12.258;2022-11-06T07:25:56;11.43;;;6.97;;
1679;SDS011;838;51.794;12.258;2022-11-06T07:28:21;10.47;;;7.40;;
1679;SDS011;838;51.794;12.258;2022-11-06T07:30:47;14.53;;;8.47;;
1679;SDS011;838;51.794;12.258;2022-11-06T07:33:13;10.73;;;6.73;;
1679;SDS011;838;51.794;12.258;2022-11-06T07:35:39;9.17;;;7.27;;
1679;SDS011;838;51.794;12.258;2022-11-06T07:38:05;8.00;;;6.00;;
1679;SDS011;838;51.794;12.258;2022-11-06T07:40:31;10.60;;;7.60;;
1679;SDS011;838;51.794;12.258;2022-11-06T07:43:04;10.00;;;7.40;;
1679;SDS011;838;51.794;12.258;2022-11-06T07:45:32;10.10;;;7.37;;
1679;SDS011;838;51.794;12.258;2022-11-06T07:47:58;10.47;;;7.53;;
1679;SDS011;838;51.794;12.258;2022-11-06T07:50:24;11.43;;;7.90;;
1679;SDS011;838;51.794;12.258;2022-11-06T07:52:50;9.40;;;7.33;;
1679;SDS011;838;51.794;12.258;2022-11-06T07:55:15;11.93;;;6.23;;
1679;SDS011;838;51.794;12.258;2022-11-06T07:57:41;9.90;;;6.67;;
1679;SDS011;838;51.794;12.258;2022-11-06T08:00:07;8.10;;;6.43;;
1679;SDS011;838;51.794;12.258;2022-11-06T08:02:34;8.13;;;6.30;;
1679;SDS011;838;51.794;12.258;2022-11-06T08:04:59;8.53;;;6.37;;
1679;SDS011;838;51.794;12.258;2022-11-06T08:07:25;11.77;;;6.50;;
1679;SDS011;838;51.794;12.258;2022-11-06T08:09:51;12.13;;;7.37;;
1679;SDS011;838;51.794;12.258;2022-11-06T08:12:16;7.23;;;6.03;;
1679;SDS011;838;51.794;12.258;2022-11-06T08:14:42;9.73;;;6.80;;
1679;SDS011;838;51.794;12.258;2022-11-06T08:17:09;9.83;;;6.80;;
1679;SDS011;838;51.794;12.258;2022-11-06T08:19:35;10.87;;;6.57;;
1679;SDS011;838;51.794;12.258;2022-11-06T08:22:00;8.93;;;5.40;;
1679;SDS011;838;51.794;12.258;2022-11-06T08:24:26;8.87;;;6.00;;
1679;SDS011;838;51.794;12.258;2022-11-06T08:26:52;8.70;;;6.43;;
1679;SDS011;838;51.794;12.258;2022-11-06T08:29:17;7.97;;;6.03;;
1679;SDS011;838;51.794;12.258;2022-11-06T08:31:43;7.37;;;5.47;;
1679;SDS011;838;51.794;12.258;2022-11-06T08:34:09;7.60;;;4.90;;
1679;SDS011;838;51.794;12.258;2022-11-06T08:36:35;9.80;;;5.73;;
1679;SDS011;838;51.794;12.258;2022-11-06T08:39:06;7.90;;;5.63;;
1679;SDS011;838;51.794;12.258;2022-11-06T08:41:32;7.50;;;5.90;;
1679;SDS011;838;51.794;12.258;2022-11-06T08:43:58;7.57;;;5.50;;
1679;SDS011;838;51.794;12.258;2022-11-06T08:46:24;8.10;;;5.90;;
1679;SDS011;838;51.794;12.258;2022-11-06T08:48:52;9.67;;;5.60;;
1679;SDS011;838;51.794;12.258;2022-11-06T08:51:20;8.03;;;5.87;;
1679;SDS011;838;51.794;12.258;2022-11-06T08:53:50;6.63;;;5.33;;
1679;SDS011;838;51.794;12.258;2022-11-06T08:56:16;9.17;;;5.63;;
1679;SDS011;838;51.794;12.258;2022-11-06T08:58:42;9.50;;;6.13;;
1679;SDS011;838;51.794;12.258;2022-11-06T09:01:07;8.33;;;6.13;;
1679;SDS011;838;51.794;12.258;2022-11-06T09:03:34;7.83;;;5.67;;
1679;SDS011;838;51.794;12.258;2022-11-06T09:05:59;9.90;;;5.83;;
1679;SDS011;838;51.794;12.258;2022-11-06T09:08:25;8.07;;;5.70;;
1679;SDS011;838;51.794;12.258;2022-11-06T09:10:51;8.00;;;5.17;;
1679;SDS011;838;51.794;12.258;2022-11-06T09:13:17;8.73;;;5.57;;
1679;SDS011;838;51.794;12.258;2022-11-06T09:15:42;8.30;;;6.00;;
1679;SDS011;838;51.794;12.258;2022-11-06T09:18:09;8.10;;;5.50;;
1679;SDS011;838;51.794;12.258;2022-11-06T09:20:35;7.97;;;5.20;;
1679;SDS011;838;51.794;12.258;2022-11-06T09:23:03;9.20;;;5.40;;
1679;SDS011;838;51.794;12.258;2022-11-06T09:25:32;8.80;;;4.90;;
1679;SDS011;838;51.794;12.258;2022-11-06T09:27:58;8.37;;;4.80;;
1679;SDS011;838;51.794;12.258;2022-11-06T09:30:25;6.93;;;5.33;;
1679;SDS011;838;51.794;12.258;2022-11-06T09:32:53;9.70;;;6.27;;
1679;SDS011;838;51.794;12.258;2022-11-06T09:35:21;10.17;;;4.80;;
1679;SDS011;838;51.794;12.258;2022-11-06T09:37:49;7.10;;;5.13;;
1679;SDS011;838;51.794;12.258;2022-11-06T09:46:08;6.57;;;4.70;;
1679;SDS011;838;51.794;12.258;2022-11-06T09:48:41;8.50;;;5.33;;
1679;SDS011;838;51.794;12.258;2022-11-06T09:51:18;8.33;;;5.40;;
1679;SDS011;838;51.794;12.258;2022-11-06T09:56:35;9.20;;;5.60;;
1679;SDS011;838;51.794;12.258;2022-11-06T09:59:04;9.40;;;5.17;;
1679;SDS011;838;51.794;12.258;2022-11-06T10:01:46;7.20;;;4.97;;
1679;SDS011;838;51.794;12.258;2022-11-06T10:06:59;7.43;;;4.80;;
1679;SDS011;838;51.794;12.258;2022-11-06T10:09:25;9.97;;;5.23;;
1679;SDS011;838;51.794;12.258;2022-11-06T10:12:02;6.77;;;4.70;;
1679;SDS011;838;51.794;12.258;2022-11-06T10:15:03;7.60;;;5.20;;
1679;SDS011;838;51.794;12.258;2022-11-06T10:17:50;6.50;;;4.87;;
1679;SDS011;838;51.794;12.258;2022-11-06T10:20:38;11.30;;;4.67;;
1679;SDS011;838;51.794;12.258;2022-11-06T10:26:39;6.90;;;5.00;;
1679;SDS011;838;51.794;12.258;2022-11-06T10:32:24;6.00;;;4.50;;
1679;SDS011;838;51.794;12.258;2022-11-06T10:36:19;7.33;;;5.10;;
1679;SDS011;838;51.794;12.258;2022-11-06T10:38:23;6.57;;;4.10;;
1679;SDS011;838;51.794;12.258;2022-11-06T10:40:53;7.80;;;4.30;;
1679;SDS011;838;51.794;12.258;2022-11-06T10:48:54;6.30;;;4.20;;
1679;SDS011;838;51.794;12.258;2022-11-06T10:51:36;6.70;;;4.73;;
1679;SDS011;838;51.794;12.258;2022-11-06T10:57:00;8.10;;;4.70;;
1679;SDS011;838;51.794;12.258;2022-11-06T10:59:47;6.40;;;3.80;;
1679;SDS011;838;51.794;12.258;2022-11-06T11:04:52;6.43;;;4.27;;
1679;SDS011;838;51.794;12.258;2022-11-06T11:07:20;7.10;;;4.50;;
1679;SDS011;838;51.794;12.258;2022-11-06T11:09:48;6.10;;;4.70;;
1679;SDS011;838;51.794;12.258;2022-11-06T11:15:03;7.60;;;4.40;;
1679;SDS011;838;51.794;12.258;2022-11-06T11:17:40;7.40;;;4.20;;
1679;SDS011;838;51.794;12.258;2022-11-06T11:20:53;7.47;;;4.80;;
1679;SDS011;838;51.794;12.258;2022-11-06T11:25:56;5.50;;;4.03;;
1679;SDS011;838;51.794;12.258;2022-11-06T11:28:39;8.07;;;3.87;;
1679;SDS011;838;51.794;12.258;2022-11-06T11:31:15;5.73;;;3.90;;
1679;SDS011;838;51.794;12.258;2022-11-06T11:33:51;7.03;;;3.80;;
1679;SDS011;838;51.794;12.258;2022-11-06T11:36:19;6.03;;;4.20;;
1679;SDS011;838;51.794;12.258;2022-11-06T11:38:48;6.77;;;4.20;;
1679;SDS011;838;51.794;12.258;2022-11-06T11:43:55;8.07;;;3.77;;
1679;SDS011;838;51.794;12.258;2022-11-06T11:46:45;7.20;;;4.50;;
1679;SDS011;838;51.794;12.258;2022-11-06T11:49:32;6.23;;;4.20;;
1679;SDS011;838;51.794;12.258;2022-11-06T11:52:02;6.63;;;4.00;;
1679;SDS011;838;51.794;12.258;2022-11-06T11:54:34;8.60;;;4.57;;
1679;SDS011;838;51.794;12.258;2022-11-06T11:57:02;5.03;;;3.70;;
1679;SDS011;838;51.794;12.258;2022-11-06T11:59:44;7.40;;;4.47;;
1679;SDS011;838;51.794;12.258;2022-11-06T12:02:24;5.50;;;3.03;;
1679;SDS011;838;51.794;12.258;2022-11-06T12:05:00;5.33;;;3.50;;
1679;SDS011;838;51.794;12.258;2022-11-06T12:07:36;6.30;;;3.37;;
1679;SDS011;838;51.794;12.258;2022-11-06T12:10:39;4.70;;;3.30;;
1679;SDS011;838;51.794;12.258;2022-11-06T12:13:03;5.40;;;3.20;;
1679;SDS011;838;51.794;12.258;2022-11-06T12:18:34;6.47;;;3.20;;
1679;SDS011;838;51.794;12.258;2022-11-06T12:21:07;5.73;;;3.30;;
1679;SDS011;838;51.794;12.258;2022-11-06T12:29:01;7.27;;;3.20;;
1679;SDS011;838;51.794;12.258;2022-11-06T12:31:37;9.60;;;3.47;;
1679;SDS011;838;51.794;12.258;2022-11-06T12:34:32;5.63;;;2.83;;
1679;SDS011;838;51.794;12.258;2022-11-06T12:40:13;5.90;;;2.80;;
1679;SDS011;838;51.794;12.258;2022-11-06T12:42:53;5.47;;;2.97;;
1679;SDS011;838;51.794;12.258;2022-11-06T12:51:28;4.83;;;2.70;;
1679;SDS011;838;51.794;12.258;2022-11-06T12:57:20;5.47;;;2.80;;
1679;SDS011;838;51.794;12.258;2022-11-06T13:00:03;7.70;;;3.40;;
1679;SDS011;838;51.794;12.258;2022-11-06T13:05:27;6.13;;;2.90;;
1679;SDS011;838;51.794;12.258;2022-11-06T13:11:04;4.67;;;2.30;;
1679;SDS011;838;51.794;12.258;2022-11-06T13:24:47;5.20;;;2.90;;
1679;SDS011;838;51.794;12.258;2022-11-06T13:30:01;4.80;;;2.13;;
1679;SDS011;838;51.794;12.258;2022-11-06T13:32:30;4.30;;;2.73;;
1679;SDS011;838;51.794;12.258;2022-11-06T13:34:58;4.80;;;2.00;;
1679;SDS011;838;51.794;12.258;2022-11-06T13:37:36;5.30;;;2.30;;
1679;SDS011;838;51.794;12.258;2022-11-06T13:42:56;4.87;;;2.33;;
1679;SDS011;838;51.794;12.258;2022-11-06T13:45:32;3.17;;;1.83;;
1679;SDS011;838;51.794;12.258;2022-11-06T13:48:43;5.20;;;2.10;;
1679;SDS011;838;51.794;12.258;2022-11-06T13:59:37;4.73;;;2.70;;
1679;SDS011;838;51.794;12.258;2022-11-06T14:02:34;6.63;;;3.30;;
1679;SDS011;838;51.794;12.258;2022-11-06T14:08:18;3.30;;;2.10;;
1679;SDS011;838;51.794;12.258;2022-11-06T14:10:52;4.20;;;2.23;;
1679;SDS011;838;51.794;12.258;2022-11-06T14:13:24;3.47;;;2.10;;
1679;SDS011;838;51.794;12.258;2022-11-06T14:15:59;4.10;;;2.10;;
1679;SDS011;838;51.794;12.258;2022-11-06T14:19:03;2.90;;;1.87;;
1679;SDS011;838;51.794;12.258;2022-11-06T14:26:52;4.30;;;1.97;;
1679;SDS011;838;51.794;12.258;2022-11-06T14:31:57;4.67;;;2.47;;
1679;SDS011;838;51.794;12.258;2022-11-06T14:34:33;4.63;;;2.83;;
1679;SDS011;838;51.794;12.258;2022-11-06T14:44:54;10.27;;;6.67;;
1679;SDS011;838;51.794;12.258;2022-11-06T14:48:06;18.40;;;11.77;;
1679;SDS011;838;51.794;12.258;2022-11-06T14:53:15;5.10;;;3.50;;
1679;SDS011;838;51.794;12.258;2022-11-06T14:55:44;4.53;;;2.90;;
1679;SDS011;838;51.794;12.258;2022-11-06T14:58:21;4.27;;;2.40;;
1679;SDS011;838;51.794;12.258;2022-11-06T15:01:02;4.83;;;2.80;;
1679;SDS011;838;51.794;12.258;2022-11-06T15:16:47;5.17;;;2.90;;
1679;SDS011;838;51.794;12.258;2022-11-06T15:24:58;6.20;;;3.73;;
1679;SDS011;838;51.794;12.258;2022-11-06T15:27:28;4.03;;;2.90;;
1679;SDS011;838;51.794;12.258;2022-11-06T15:29:57;4.40;;;2.87;;
1679;SDS011;838;51.794;12.258;2022-11-06T15:32:28;4.37;;;2.63;;
1679;SDS011;838;51.794;12.258;2022-11-06T15:34:59;9.90;;;4.90;;
1679;SDS011;838;51.794;12.258;2022-11-06T15:37:40;16.93;;;9.70;;
1679;SDS011;838;51.794;12.258;2022-11-06T15:40:25;4.80;;;2.57;;
1679;SDS011;838;51.794;12.258;2022-11-06T15:42:55;3.73;;;2.30;;
1679;SDS011;838;51.794;12.258;2022-11-06T15:45:25;4.63;;;2.50;;
1679;SDS011;838;51.794;12.258;2022-11-06T15:47:54;7.03;;;3.27;;
1679;SDS011;838;51.794;12.258;2022-11-06T15:52:50;3.17;;;2.20;;
1679;SDS011;838;51.794;12.258;2022-11-06T15:55:27;5.00;;;2.70;;
1679;SDS011;838;51.794;12.258;2022-11-06T15:58:06;4.73;;;2.47;;
1679;SDS011;838;51.794;12.258;2022-11-06T16:00:41;4.43;;;2.43;;
1679;SDS011;838;51.794;12.258;2022-11-06T16:03:13;6.77;;;4.70;;
1679;SDS011;838;51.794;12.258;2022-11-06T16:05:41;10.23;;;4.63;;
1679;SDS011;838;51.794;12.258;2022-11-06T16:08:14;6.43;;;4.20;;
1679;SDS011;838;51.794;12.258;2022-11-06T16:10:42;11.87;;;3.77;;
1679;SDS011;838;51.794;12.258;2022-11-06T16:13:10;4.97;;;3.13;;
1679;SDS011;838;51.794;12.258;2022-11-06T16:20:57;6.83;;;4.60;;
1679;SDS011;838;51.794;12.258;2022-11-06T16:26:12;7.23;;;5.20;;
1679;SDS011;838;51.794;12.258;2022-11-06T16:28:43;6.70;;;5.27;;
1679;SDS011;838;51.794;12.258;2022-11-06T16:31:15;7.67;;;5.07;;
1679;SDS011;838;51.794;12.258;2022-11-06T16:33:52;8.07;;;5.20;;
1679;SDS011;838;51.794;12.258;2022-11-06T16:36:22;7.47;;;5.10;;
1679;SDS011;838;51.794;12.258;2022-11-06T16:38:49;8.57;;;7.13;;
1679;SDS011;838;51.794;12.258;2022-11-06T16:41:17;9.13;;;5.20;;
1679;SDS011;838;51.794;12.258;2022-11-06T16:44:22;10.13;;;6.53;;
1679;SDS011;838;51.794;12.258;2022-11-06T16:49:38;11.27;;;6.30;;
1679;SDS011;838;51.794;12.258;2022-11-06T16:52:16;8.33;;;6.33;;
1679;SDS011;838;51.794;12.258;2022-11-06T16:54:48;8.43;;;6.17;;
1679;SDS011;838;51.794;12.258;2022-11-06T16:57:22;8.93;;;5.40;;
1679;SDS011;838;51.794;12.258;2022-11-06T16:59:54;11.40;;;6.37;;
1679;SDS011;838;51.794;12.258;2022-11-06T17:02:26;8.63;;;5.00;;
1679;SDS011;838;51.794;12.258;2022-11-06T17:07:40;13.80;;;6.10;;
1679;SDS011;838;51.794;12.258;2022-11-06T17:10:23;6.43;;;5.00;;
1679;SDS011;838;51.794;12.258;2022-11-06T17:12:49;11.00;;;6.30;;
1679;SDS011;838;51.794;12.258;2022-11-06T17:15:14;8.90;;;5.57;;
1679;SDS011;838;51.794;12.258;2022-11-06T17:17:40;12.67;;;8.33;;
1679;SDS011;838;51.794;12.258;2022-11-06T17:20:17;12.10;;;7.37;;
1679;SDS011;838;51.794;12.258;2022-11-06T17:22:43;8.27;;;6.80;;
1679;SDS011;838;51.794;12.258;2022-11-06T17:25:10;9.17;;;7.00;;
1679;SDS011;838;51.794;12.258;2022-11-06T17:27:36;8.73;;;6.73;;
1679;SDS011;838;51.794;12.258;2022-11-06T17:30:01;8.17;;;6.83;;
1679;SDS011;838;51.794;12.258;2022-11-06T17:32:27;15.30;;;7.60;;
1679;SDS011;838;51.794;12.258;2022-11-06T17:34:53;9.27;;;6.77;;
1679;SDS011;838;51.794;12.258;2022-11-06T17:37:20;10.47;;;7.60;;
1679;SDS011;838;51.794;12.258;2022-11-06T17:39:47;14.77;;;8.17;;
1679;SDS011;838;51.794;12.258;2022-11-06T17:42:13;9.97;;;7.17;;
1679;SDS011;838;51.794;12.258;2022-11-06T17:44:38;8.00;;;6.57;;
1679;SDS011;838;51.794;12.258;2022-11-06T17:47:04;9.83;;;7.63;;
1679;SDS011;838;51.794;12.258;2022-11-06T17:49:36;11.00;;;7.60;;
1679;SDS011;838;51.794;12.258;2022-11-06T17:52:02;8.93;;;7.70;;
1679;SDS011;838;51.794;12.258;2022-11-06T17:54:29;9.50;;;6.63;;
1679;SDS011;838;51.794;12.258;2022-11-06T17:56:56;8.37;;;6.60;;
1679;SDS011;838;51.794;12.258;2022-11-06T17:59:23;8.50;;;6.03;;
1679;SDS011;838;51.794;12.258;2022-11-06T18:01:50;8.80;;;6.43;;
1679;SDS011;838;51.794;12.258;2022-11-06T18:04:17;10.27;;;8.00;;
1679;SDS011;838;51.794;12.258;2022-11-06T18:06:44;10.27;;;7.10;;
1679;SDS011;838;51.794;12.258;2022-11-06T18:09:11;13.90;;;7.77;;
1679;SDS011;838;51.794;12.258;2022-11-06T18:11:38;9.40;;;6.43;;
1679;SDS011;838;51.794;12.258;2022-11-06T18:14:04;12.90;;;7.63;;
1679;SDS011;838;51.794;12.258;2022-11-06T18:16:30;9.50;;;7.17;;
1679;SDS011;838;51.794;12.258;2022-11-06T18:18:58;9.27;;;7.17;;
1679;SDS011;838;51.794;12.258;2022-11-06T18:21:24;10.43;;;7.10;;
1679;SDS011;838;51.794;12.258;2022-11-06T18:23:50;8.80;;;6.27;;
1679;SDS011;838;51.794;12.258;2022-11-06T18:26:17;8.77;;;6.20;;
1679;SDS011;838;51.794;12.258;2022-11-06T18:28:45;9.03;;;6.70;;
1679;SDS011;838;51.794;12.258;2022-11-06T18:31:11;9.67;;;6.40;;
1679;SDS011;838;51.794;12.258;2022-11-06T18:33:37;9.70;;;6.70;;
1679;SDS011;838;51.794;12.258;2022-11-06T18:36:04;9.53;;;6.73;;